Terminal Aerodrome Forecast
Issued by NWS Grand Forks, ND

Home | Current Version | Previous Version | Text Only | Print | Product List | Glossary Off
Versions: 1 2 3 4 5 6 7 8 9 10 11 12 13 14 15 16 17

122
FTUS43 KFGF 160521
TAFGFK
TAF
KGFK 160521Z 1606/1706 27009KT P6SM SKC
     FM161200 23009KT P6SM SKC
     FM161700 20011KT P6SM SCT250
     FM170300 21011KT P6SM BKN090=

USA.gov is the U.S. government's official web portal to all federal, state and local government web resources and services.